Terminal Aerodrome Forecast
Issued by NWS

Home | Current Version | Previous Version | Graphics & Text | Print | Product List | Glossary On
Versions: 1 2 3 4 5 6 7 8 9 10 11 12 13 14
000
FTUS45 KGGW 061128
TAFSDY
TAF
KSDY 061128Z 0612/0712 30020G29KT P6SM VCSH BKN030
     FM061300 30019G27KT P6SM OVC025
     FM070900 30013KT P6SM BKN015=

USA.gov is the U.S. government's official web portal to all federal, state and local government web resources and services.